Time;durP1;ratioP1;P1;durP2;ratioP2;P2;SDS_P1;SDS_P2;PMS_P1;PMS_P2;Temp;Humidity;BMP_temperature;BMP_pressure;BME280_temperature;BME280_humidity;BME280_pressure;Samples;Min_cycle;Max_cycle;Signal;HPM_P1;HPM_P2
2022/12/02 00:01:59;;;;;;;56.97;23.33;;;3.20;99.90;;;;;;5077488;28;20082;-84
2022/12/02 00:04:44;;;;;;;54.97;25.53;;;;;;;;;;5079774;28;20062;-84
2022/12/02 00:07:28;;;;;;;60.80;25.83;;;;;;;;;;5079962;28;20510;-84
2022/12/02 00:10:24;;;;;;;57.97;24.63;;;3.20;99.90;;;;;;5095502;28;20089;-84
2022/12/02 00:13:18;;;;;;;58.20;25.47;;;3.50;99.90;;;;;;5080207;28;20043;-83
2022/12/02 00:16:03;;;;;;;42.45;18.58;;;3.20;99.90;;;;;;5077726;28;20083;-83
2022/12/02 00:18:48;;;;;;;50.63;21.90;;;;;;;;;;5094858;28;20042;-83
2022/12/02 00:21:33;;;;;;;51.50;24.17;;;;;;;;;;5095101;28;20071;-84
2022/12/02 00:24:18;;;;;;;52.13;23.63;;;3.20;99.90;;;;;;5095362;28;20050;-84
2022/12/02 00:27:03;;;;;;;54.80;23.43;;;;;;;;;;5095084;28;20085;-84
2022/12/02 00:29:47;;;;;;;52.07;25.13;;;;;;;;;;5079433;28;20051;-83
2022/12/02 00:32:32;;;;;;;57.53;24.10;;;;;;;;;;5094543;28;20039;-84
2022/12/02 00:35:16;;;;;;;53.90;24.37;;;;;;;;;;5095197;28;20450;-84
2022/12/02 00:38:01;;;;;;;57.63;26.43;;;;;;;;;;5079716;28;20043;-83
2022/12/02 00:40:46;;;;;;;51.13;23.40;;;;;;;;;;5079144;28;20055;-83
2022/12/02 00:46:34;;;;;;;52.53;24.42;;;;;;;;;;5094352;28;20043;-83
2022/12/02 00:49:19;;;;;;;53.33;22.90;;;;;;;;;;5094973;28;20075;-83
2022/12/02 00:52:03;;;;;;;56.17;24.10;;;2.80;99.90;;;;;;5094916;28;20403;-83
2022/12/02 00:54:48;;;;;;;54.67;23.57;;;;;;;;;;5094158;28;20039;-84
2022/12/02 00:57:32;;;;;;;53.53;23.73;;;;;;;;;;5107667;28;20062;-84
2022/12/02 01:00:17;;;;;;;51.43;23.63;;;3.20;99.90;;;;;;5094544;28;20081;-83
2022/12/02 01:03:01;;;;;;;50.70;21.80;;;;;;;;;;5107701;28;20117;-84
2022/12/02 01:05:46;;;;;;;46.73;22.83;;;;;;;;;;5107423;28;20092;-84
2022/12/02 01:08:31;;;;;;;43.77;20.47;;;;;;;;;;5094184;28;20043;-84
2022/12/02 01:11:16;;;;;;;46.03;21.33;;;;;;;;;;5079031;28;20074;-83
2022/12/02 01:14:00;;;;;;;48.50;22.43;;;;;;;;;;5094441;28;20050;-84
2022/12/02 01:16:46;;;;;;;40.67;19.10;;;;;;;;;;5078499;28;20079;-83
2022/12/02 01:19:31;;;;;;;42.70;19.63;;;;;;;;;;5107577;28;20126;-84
2022/12/02 01:22:15;;;;;;;41.20;19.50;;;;;;;;;;5107224;28;20051;-83
2022/12/02 01:25:00;;;;;;;41.33;17.20;;;;;;;;;;5094295;28;20043;-83
2022/12/02 01:27:44;;;;;;;41.67;17.47;;;;;;;;;;5078221;28;20031;-84
2022/12/02 01:30:29;;;;;;;36.60;17.83;;;;;;;;;;5107144;28;20081;-84
2022/12/02 01:33:13;;;;;;;34.47;15.73;;;;;;;;;;5078621;28;20070;-84
2022/12/02 01:35:58;;;;;;;35.67;15.97;;;;;;;;;;5071354;28;20097;-84
2022/12/02 01:38:42;;;;;;;36.20;16.63;;;;;;;;;;5106651;28;20085;-85
2022/12/02 01:41:27;;;;;;;34.47;15.60;;;;;;;;;;5093738;28;20490;-84
2022/12/02 01:44:11;;;;;;;37.70;15.37;;;;;;;;;;5078613;28;20475;-83
2022/12/02 01:46:56;;;;;;;35.67;17.30;;;;;;;;;;5077948;28;20070;-84
2022/12/02 01:49:40;;;;;;;40.80;17.57;;;;;;;;;;5106588;28;20078;-85
2022/12/02 01:52:25;;;;;;;36.47;16.40;;;;;;;;;;5078126;28;20545;-83
2022/12/02 01:55:14;;;;;;;37.90;15.87;;;3.00;99.90;;;;;;5077980;28;20498;-84
2022/12/02 01:57:59;;;;;;;33.17;14.83;;;;;;;;;;5077681;28;20117;-84
2022/12/02 02:00:43;;;;;;;31.37;14.87;;;;;;;;;;5106385;28;20043;-83
2022/12/02 02:03:29;;;;;;;29.53;14.47;;;;;;;;;;5077842;28;20097;-84
2022/12/02 02:06:13;;;;;;;31.43;16.40;;;;;;;;;;5093396;28;20043;-83
2022/12/02 02:08:58;;;;;;;33.27;16.27;;;;;;;;;;5092764;28;20047;-83
2022/12/02 02:11:42;;;;;;;35.50;16.23;;;;;;;;;;5077398;28;20042;-84
2022/12/02 02:14:27;;;;;;;34.63;17.27;;;;;;;;;;5106521;28;20123;-83
2022/12/02 02:17:12;;;;;;;31.60;15.43;;;;;;;;;;5092907;28;20098;-84
2022/12/02 02:19:57;;;;;;;35.73;15.90;;;;;;;;;;5077343;28;20120;-83
2022/12/02 02:23:03;;;;;;;40.63;17.83;;;3.00;99.90;;;;;;5077395;28;20047;-85
2022/12/02 02:25:50;;;;;;;38.77;18.00;;;2.90;99.90;;;;;;5092012;28;20055;-84
2022/12/02 02:28:34;;;;;;;36.67;16.03;;;;;;;;;;5092959;28;20077;-83
2022/12/02 02:31:19;;;;;;;39.50;15.33;;;;;;;;;;5092967;28;20070;-84
2022/12/02 02:34:03;;;;;;;38.17;16.63;;;;;;;;;;5076975;28;20051;-84
2022/12/02 02:36:48;;;;;;;46.20;19.47;;;;;;;;;;5092454;28;20125;-83
2022/12/02 02:39:32;;;;;;;36.23;16.47;;;;;;;;;;5091867;28;20039;-84
2022/12/02 02:42:17;;;;;;;42.93;18.87;;;;;;;;;;5106027;28;20096;-84
2022/12/02 02:45:02;;;;;;;39.43;16.93;;;;;;;;;;5092273;28;20039;-84
2022/12/02 02:47:47;;;;;;;38.20;17.07;;;2.70;99.90;;;;;;5092139;28;20031;-84
2022/12/02 02:50:32;;;;;;;40.77;17.47;;;;;;;;;;5092693;28;20043;-84
2022/12/02 02:53:20;;;;;;;42.33;18.37;;;2.70;99.90;;;;;;5092652;28;20039;-84
2022/12/02 02:56:05;;;;;;;39.90;17.67;;;2.70;99.90;;;;;;5092035;28;20040;-84
2022/12/02 02:58:50;;;;;;;40.73;18.73;;;;;;;;;;5092273;28;20097;-84
2022/12/02 03:01:35;;;;;;;43.47;18.30;;;2.60;99.90;;;;;;5077226;28;20101;-84
2022/12/02 03:04:22;;;;;;;47.07;19.93;;;2.60;99.90;;;;;;5105857;28;20093;-84
2022/12/02 03:07:07;;;;;;;49.07;20.10;;;;;;;;;;5076801;28;20043;-84
2022/12/02 03:09:52;;;;;;;48.33;21.63;;;;;;;;;;5091865;28;20059;-84
2022/12/02 03:12:37;;;;;;;42.93;19.43;;;;;;;;;;5092555;28;20046;-84
2022/12/02 03:15:23;;;;;;;46.60;18.93;;;2.60;99.90;;;;;;5077121;28;20081;-84
2022/12/02 03:18:07;;;;;;;40.37;17.20;;;;;;;;;;5090811;28;20058;-84
2022/12/02 03:20:52;;;;;;;45.97;19.90;;;;;;;;;;5105157;28;20078;-84
2022/12/02 03:23:37;;;;;;;41.87;18.03;;;;;;;;;;5105543;28;20123;-84
2022/12/02 03:26:22;;;;;;;45.50;17.93;;;;;;;;;;5077285;28;20089;-84
2022/12/02 03:29:08;;;;;;;46.87;20.60;;;2.60;99.90;;;;;;5090870;28;20419;-84
2022/12/02 03:31:52;;;;;;;43.60;19.83;;;;;;;;;;5090668;28;20093;-84
2022/12/02 03:34:38;;;;;;;46.67;19.67;;;2.60;99.90;;;;;;5077136;28;20073;-84
2022/12/02 03:37:23;;;;;;;47.20;20.93;;;;;;;;;;5078454;28;20040;-84
2022/12/02 03:40:08;;;;;;;48.83;22.17;;;2.50;99.90;;;;;;5109070;28;20092;-84
2022/12/02 03:42:53;;;;;;;51.30;22.47;;;;;;;;;;5080124;28;20449;-84
2022/12/02 03:45:38;;;;;;;48.53;21.03;;;;;;;;;;5094881;28;20093;-84
2022/12/02 03:48:24;;;;;;;50.47;21.23;;;;;;;;;;5109366;28;20062;-84
2022/12/02 03:51:10;;;;;;;46.07;19.67;;;2.60;99.90;;;;;;5080031;28;20059;-84
2022/12/02 03:53:55;;;;;;;46.87;20.90;;;;;;;;;;5095585;28;20117;-84
2022/12/02 03:56:41;;;;;;;46.13;21.30;;;2.60;99.90;;;;;;5095952;28;20499;-83
2022/12/02 03:59:26;;;;;;;54.40;21.03;;;2.60;99.90;;;;;;5095813;28;20035;-84
2022/12/02 04:02:11;;;;;;;52.17;20.80;;;;;;;;;;5079854;28;20069;-84
2022/12/02 04:04:56;;;;;;;52.17;21.73;;;;;;;;;;5095142;28;20115;-84
2022/12/02 04:07:40;;;;;;;47.63;21.00;;;;;;;;;;5080463;28;20115;-84
2022/12/02 04:10:25;;;;;;;54.90;21.43;;;;;;;;;;5094630;28;20387;-84
2022/12/02 04:13:09;;;;;;;46.10;21.13;;;;;;;;;;5094927;28;20054;-83
2022/12/02 04:15:54;;;;;;;46.10;20.23;;;;;;;;;;5095061;28;20039;-86
2022/12/02 04:18:39;;;;;;;45.33;19.73;;;;;;;;;;5094274;28;20076;-83
2022/12/02 04:21:23;;;;;;;48.37;20.87;;;;;;;;;;5095447;28;20499;-84
2022/12/02 04:24:08;;;;;;;49.10;21.30;;;;;;;;;;5079568;28;20051;-84
2022/12/02 04:26:52;;;;;;;52.20;22.10;;;;;;;;;;5079859;28;20058;-84
2022/12/02 04:29:37;;;;;;;50.80;21.07;;;;;;;;;;5079898;28;20495;-83
2022/12/02 04:32:21;;;;;;;43.60;18.40;;;;;;;;;;5094924;28;20046;-84
2022/12/02 04:35:06;;;;;;;49.83;20.60;;;2.50;99.90;;;;;;5094556;28;20543;-84
2022/12/02 04:37:52;;;;;;;49.83;21.53;;;;;;;;;;5079692;28;20043;-84
2022/12/02 04:40:37;;;;;;;52.20;21.33;;;;;;;;;;5094756;28;20027;-84
2022/12/02 04:43:22;;;;;;;54.80;21.50;;;;;;;;;;5093385;28;20560;-83
2022/12/02 04:46:06;;;;;;;52.60;20.83;;;;;;;;;;5079088;28;20069;-84
2022/12/02 04:48:50;;;;;;;52.70;20.53;;;;;;;;;;5094393;28;20529;-84
2022/12/02 04:51:35;;;;;;;56.37;22.13;;;;;;;;;;5093634;28;20456;-83
2022/12/02 04:54:19;;;;;;;54.20;21.93;;;;;;;;;;5078830;28;20046;-84
2022/12/02 04:57:04;;;;;;;62.97;24.63;;;;;;;;;;5078966;28;20039;-84
2022/12/02 04:59:48;;;;;;;57.80;22.67;;;;;;;;;;5079136;28;20035;-84
2022/12/02 05:02:33;;;;;;;55.57;22.10;;;;;;;;;;5108001;28;20456;-83
2022/12/02 05:05:18;;;;;;;55.00;24.07;;;;;;;;;;5078894;28;20097;-84
2022/12/02 05:08:04;;;;;;;56.23;22.00;;;;;;;;;;5093885;28;20043;-84
2022/12/02 05:10:49;;;;;;;55.23;21.93;;;;;;;;;;5094450;28;20085;-84
2022/12/02 05:13:33;;;;;;;53.67;24.07;;;;;;;;;;5094391;28;20085;-83
2022/12/02 05:16:18;;;;;;;57.60;24.43;;;;;;;;;;5078427;28;20055;-83
2022/12/02 05:19:02;;;;;;;60.80;24.03;;;;;;;;;;5107253;28;20039;-84
2022/12/02 05:21:47;;;;;;;52.47;21.70;;;;;;;;;;5078787;28;20534;-84
2022/12/02 05:24:31;;;;;;;57.13;21.70;;;;;;;;;;5094054;28;20404;-84
2022/12/02 05:27:16;;;;;;;60.07;23.40;;;;;;;;;;5106930;28;20042;-84
2022/12/02 05:30:00;;;;;;;61.47;24.40;;;;;;;;;;5078532;28;20066;-84
2022/12/02 05:32:45;;;;;;;50.37;20.60;;;;;;;;;;5078805;28;20035;-83
2022/12/02 05:35:29;;;;;;;58.10;24.40;;;;;;;;;;5093940;28;20154;-84
2022/12/02 05:38:14;;;;;;;57.67;24.33;;;;;;;;;;5093468;28;20537;-83
2022/12/02 05:40:58;;;;;;;58.43;22.90;;;;;;;;;;5092714;28;20404;-83
2022/12/02 05:43:43;;;;;;;59.80;25.97;;;;;;;;;;5092468;28;20085;-84
2022/12/02 05:46:28;;;;;;;58.07;22.57;;;;;;;;;;5093281;28;20396;-84
2022/12/02 05:49:19;;;;;;;56.97;22.60;;;2.10;99.90;;;;;;5077777;28;20047;-84
2022/12/02 05:52:30;;;;;;;60.23;24.67;;;2.10;99.90;;;;;;5078310;28;20077;-84
2022/12/02 05:55:18;;;;;;;56.43;24.30;;;2.10;99.90;;;;;;5093189;28;20034;-83
2022/12/02 05:58:06;;;;;;;65.63;25.57;;;2.10;99.90;;;;;;5078119;28;20076;-83
2022/12/02 06:00:58;;;;;;;62.07;23.43;;;2.10;99.90;;;;;;5092866;28;20462;-83
2022/12/02 06:03:43;;;;;;;62.63;22.67;;;;;;;;;;5093326;28;20499;-83
2022/12/02 06:06:29;;;;;;;61.43;24.20;;;2.10;99.90;;;;;;5092874;28;20273;-84
2022/12/02 06:09:17;;;;;;;66.60;25.67;;;2.10;99.90;;;;;;5077524;28;20074;-84
2022/12/02 06:12:02;;;;;;;61.00;23.70;;;;;;;;;;5093301;28;20082;-84
2022/12/02 06:14:53;;;;;;;62.33;24.07;;;2.10;99.90;;;;;;5091979;28;20039;-84
2022/12/02 06:17:38;;;;;;;67.33;25.57;;;;;;;;;;5093394;28;20105;-83
2022/12/02 06:20:29;;;;;;;65.03;23.20;;;2.30;99.90;;;;;;5091526;28;20035;-84
2022/12/02 06:23:19;;;;;;;58.07;22.60;;;2.20;99.90;;;;;;5092527;28;20078;-84
2022/12/02 06:26:04;;;;;;;63.87;24.67;;;;;;;;;;5077648;28;20070;-83
2022/12/02 06:28:57;;;;;;;67.30;23.10;;;2.20;99.90;;;;;;5092841;28;20081;-83
2022/12/02 06:31:42;;;;;;;63.70;24.77;;;;;;;;;;5077639;28;20123;-84
2022/12/02 06:34:30;;;;;;;59.73;23.67;;;2.20;99.90;;;;;;5077125;28;20047;-84
2022/12/02 06:37:14;;;;;;;66.67;25.00;;;;;;;;;;5092272;28;20445;-84
2022/12/02 06:40:00;;;;;;;70.80;26.50;;;;;;;;;;5077483;28;20038;-84
2022/12/02 06:42:45;;;;;;;59.23;25.37;;;;;;;;;;5105766;28;20097;-84
2022/12/02 06:45:31;;;;;;;60.87;24.83;;;2.30;99.90;;;;;;5077093;28;20115;-83
2022/12/02 06:48:25;;;;;;;71.23;24.70;;;2.40;99.90;;;;;;5077054;28;20058;-84
2022/12/02 06:51:18;;;;;;;67.13;26.00;;;2.30;99.90;;;;;;5077272;28;20039;-83
2022/12/02 06:54:11;;;;;;;71.53;25.93;;;2.30;99.90;;;;;;5092632;28;20039;-84
2022/12/02 06:57:01;;;;;;;58.33;24.58;;;2.40;99.90;;;;;;5077460;28;20055;-84
2022/12/02 06:59:47;;;;;;;69.67;25.70;;;2.40;99.90;;;;;;5092401;28;20450;-83
2022/12/02 07:02:32;;;;;;;66.50;25.43;;;;;;;;;;5092064;28;20039;-84
2022/12/02 07:05:20;;;;;;;73.57;25.17;;;2.30;99.90;;;;;;5092157;28;20548;-84
2022/12/02 07:08:04;;;;;;;65.33;26.03;;;;;;;;;;5092464;28;20450;-84
2022/12/02 07:10:49;;;;;;;65.77;24.27;;;;;;;;;;5093503;28;20120;-84
2022/12/02 07:13:33;;;;;;;78.03;25.37;;;;;;;;;;5080870;28;20601;-83
2022/12/02 07:16:35;;;;;;;66.30;28.03;;;2.40;99.90;;;;;;5095166;28;20185;-84
2022/12/02 07:19:29;;;;;;;60.50;25.60;;;2.50;99.90;;;;;;5096246;28;20039;-84
2022/12/02 07:22:47;;;;;;;71.57;24.03;;;2.50;99.90;;;;;;5081252;28;20062;-84
2022/12/02 07:25:40;;;;;;;62.10;24.93;;;2.50;99.90;;;;;;5095892;28;20046;-84
2022/12/02 07:28:35;;;;;;;68.18;25.17;;;2.40;99.90;;;;;;5095982;28;20065;-84
2022/12/02 07:31:20;;;;;;;64.13;25.57;;;;;;;;;;5095892;28;20108;-84
2022/12/02 07:34:04;;;;;;;70.60;26.53;;;;;;;;;;5080449;28;20124;-84
2022/12/02 07:36:49;;;;;;;65.23;27.20;;;;;;;;;;5109193;28;20081;-84
2022/12/02 07:39:34;;;;;;;59.67;24.57;;;;;;;;;;5095780;28;20030;-83
2022/12/02 07:42:18;;;;;;;59.40;24.80;;;;;;;;;;5109418;28;20055;-84
2022/12/02 07:45:03;;;;;;;53.90;22.47;;;2.60;99.90;;;;;;5080704;28;20047;-84
2022/12/02 07:47:48;;;;;;;63.73;21.47;;;;;;;;;;5080474;28;20035;-84
2022/12/02 07:50:33;;;;;;;56.10;23.90;;;;;;;;;;5108748;28;20066;-84
2022/12/02 07:53:18;;;;;;;52.97;21.40;;;;;;;;;;5080570;28;20115;-83
2022/12/02 07:56:03;;;;;;;51.93;21.07;;;;;;;;;;5080469;28;20124;-84
2022/12/02 07:58:48;;;;;;;59.80;24.17;;;;;;;;;;5080615;28;20111;-84
2022/12/02 08:01:32;;;;;;;52.60;22.03;;;;;;;;;;5095195;28;20133;-84
2022/12/02 08:04:17;;;;;;;55.50;20.97;;;;;;;;;;5080297;28;20043;-84
2022/12/02 08:07:01;;;;;;;61.73;23.03;;;;;;;;;;5095732;28;20105;-84
2022/12/02 08:09:46;;;;;;;51.20;20.90;;;;;;;;;;5093940;28;20081;-84
2022/12/02 08:12:30;;;;;;;51.33;20.40;;;;;;;;;;5079820;28;20035;-84
2022/12/02 08:15:14;;;;;;;47.80;19.60;;;2.50;99.90;;;;;;5094273;28;20097;-84
2022/12/02 08:17:59;;;;;;;55.70;22.50;;;;;;;;;;5094194;28;20511;-84
2022/12/02 08:20:44;;;;;;;51.50;21.17;;;;;;;;;;5079655;28;20051;-84
2022/12/02 08:23:28;;;;;;;62.00;23.27;;;;;;;;;;5092864;28;20055;-84
2022/12/02 08:26:13;;;;;;;56.33;20.97;;;;;;;;;;5108814;28;20093;-84
2022/12/02 08:28:58;;;;;;;62.53;23.40;;;;;;;;;;5095120;28;20124;-84
2022/12/02 08:31:42;;;;;;;69.67;23.23;;;;;;;;;;5094610;28;20039;-84
2022/12/02 08:34:27;;;;;;;64.77;24.17;;;;;;;;;;5108016;28;20187;-85
2022/12/02 08:37:12;;;;;;;64.47;25.50;;;2.40;99.90;;;;;;5094941;28;20035;-84
2022/12/02 08:39:57;;;;;;;66.07;24.37;;;;;;;;;;5095178;28;20085;-84
2022/12/02 08:42:41;;;;;;;66.07;23.30;;;;;;;;;;5107715;28;20043;-84
2022/12/02 08:45:26;;;;;;;53.23;21.60;;;;;;;;;;5065489;28;20089;-84
2022/12/02 08:48:11;;;;;;;59.13;22.97;;;;;;;;;;5079621;28;20039;-84
2022/12/02 08:50:55;;;;;;;46.50;20.40;;;;;;;;;;5079342;28;20393;-84
2022/12/02 08:53:39;;;;;;;50.77;20.50;;;;;;;;;;5093313;28;20408;-84
2022/12/02 08:56:24;;;;;;;55.37;21.70;;;;;;;;;;5107878;28;20499;-84
2022/12/02 08:59:09;;;;;;;52.60;19.80;;;;;;;;;;5079424;28;20081;-84
2022/12/02 09:01:54;;;;;;;51.30;18.67;;;;;;;;;;5079193;28;20085;-84
2022/12/02 09:04:39;;;;;;;54.97;21.83;;;;;;;;;;5093877;28;20035;-84
2022/12/02 09:07:23;;;;;;;51.47;20.73;;;;;;;;;;5093471;28;20408;-84
2022/12/02 09:10:09;;;;;;;53.93;21.90;;;2.30;99.90;;;;;;5094473;28;20062;-84
2022/12/02 09:12:53;;;;;;;58.87;22.27;;;;;;;;;;5094022;28;20093;-84
2022/12/02 09:15:38;;;;;;;52.73;21.70;;;;;;;;;;5078654;28;20070;-84
2022/12/02 09:18:24;;;;;;;63.23;21.83;;;;;;;;;;5093966;28;20082;-84
2022/12/02 09:21:08;;;;;;;54.27;19.83;;;;;;;;;;5078887;28;20047;-84
2022/12/02 09:23:53;;;;;;;57.90;20.77;;;;;;;;;;5107070;28;20127;-84
2022/12/02 09:26:37;;;;;;;57.53;22.03;;;;;;;;;;5078376;28;20047;-84
2022/12/02 09:29:21;;;;;;;58.13;21.77;;;;;;;;;;5093127;28;20089;-84
2022/12/02 09:32:06;;;;;;;53.50;19.23;;;;;;;;;;5078512;28;20499;-84
2022/12/02 09:34:51;;;;;;;55.73;19.73;;;;;;;;;;5105832;28;20400;-84
2022/12/02 09:37:36;;;;;;;54.67;20.70;;;;;;;;;;5080325;28;20479;-84
2022/12/02 09:40:20;;;;;;;57.23;21.73;;;;;;;;;;5093844;28;20545;-84
2022/12/02 09:43:05;;;;;;;57.50;21.50;;;;;;;;;;5092465;28;20388;-84
2022/12/02 09:45:50;;;;;;;63.17;21.87;;;;;;;;;;5106632;28;20065;-84
2022/12/02 09:48:35;;;;;;;52.00;19.27;;;;;;;;;;5106906;28;20043;-86
2022/12/02 09:51:19;;;;;;;54.07;20.87;;;;;;;;;;5078208;28;20067;-84
2022/12/02 09:54:04;;;;;;;66.10;21.47;;;;;;;;;;5093598;28;20039;-84
2022/12/02 09:56:48;;;;;;;53.40;20.43;;;;;;;;;;5093239;28;20039;-84
2022/12/02 09:59:33;;;;;;;60.83;22.80;;;;;;;;;;5093464;28;20115;-84
2022/12/02 10:02:38;;;;;;;51.27;20.73;;;2.60;99.90;;;;;;5093505;28;20043;-84
2022/12/02 10:05:26;;;;;;;55.10;22.10;;;2.70;99.90;;;;;;5078231;28;20396;-83
2022/12/02 10:08:24;;;;;;;55.87;22.30;;;2.60;99.90;;;;;;5093223;28;20113;-83
2022/12/02 10:11:21;;;;;;;59.70;22.43;;;2.60;99.90;;;;;;5093370;28;20416;-83
2022/12/02 10:14:06;;;;;;;61.93;23.20;;;;;;;;;;5067444;28;20127;-84
2022/12/02 10:16:52;;;;;;;52.67;20.73;;;2.60;99.90;;;;;;5075829;28;20147;-84
2022/12/02 10:19:37;;;;;;;53.93;22.90;;;;;;;;;;5093169;28;20140;-84
2022/12/02 10:22:22;;;;;;;57.83;21.90;;;;;;;;;;5077914;28;20043;-84
2022/12/02 10:25:06;;;;;;;61.73;24.63;;;2.60;99.90;;;;;;5106167;28;20047;-84
2022/12/02 10:27:51;;;;;;;59.83;24.27;;;;;;;;;;5092645;28;20085;-84
2022/12/02 10:30:37;;;;;;;59.80;24.50;;;;;;;;;;5091728;28;20050;-84
2022/12/02 10:33:26;;;;;;;61.97;22.80;;;2.60;99.90;;;;;;5092910;28;20131;-83
2022/12/02 10:36:11;;;;;;;56.60;24.00;;;;;;;;;;5066955;28;20126;-84
2022/12/02 10:38:56;;;;;;;57.33;24.37;;;;;;;;;;5092285;28;20082;-84
2022/12/02 10:41:40;;;;;;;63.23;24.53;;;;;;;;;;5091861;28;20438;-84
2022/12/02 10:44:25;;;;;;;62.37;25.33;;;;;;;;;;5103150;28;20055;-83
2022/12/02 10:47:19;;;;;;;59.43;23.93;;;2.50;99.90;;;;;;5077158;28;20039;-84
2022/12/02 10:50:19;;;;;;;53.50;24.35;;;2.60;99.90;;;;;;5092333;28;20039;-84
2022/12/02 10:53:10;;;;;;;66.53;25.27;;;2.50;99.90;;;;;;5092125;28;20399;-84
2022/12/02 10:55:55;;;;;;;62.20;24.27;;;2.50;99.90;;;;;;5076990;28;20051;-84
2022/12/02 10:58:40;;;;;;;55.40;22.37;;;;;;;;;;5081154;28;20043;-84
2022/12/02 11:01:25;;;;;;;63.03;24.27;;;;;;;;;;5092635;28;20394;-84
2022/12/02 11:04:13;;;;;;;63.17;27.37;;;2.60;99.90;;;;;;5077214;28;20043;-84
2022/12/02 11:06:58;;;;;;;60.23;24.73;;;;;;;;;;5076776;28;20507;-84
2022/12/02 11:09:50;;;;;;;53.97;22.13;;;2.70;99.90;;;;;;5092409;28;20043;-84
2022/12/02 11:12:58;;;;;;;66.87;28.23;;;2.60;99.90;;;;;;5077295;28;20039;-84
2022/12/02 11:15:43;;;;;;;61.20;23.53;;;;;;;;;;5077126;28;20054;-84
2022/12/02 11:18:28;;;;;;;59.00;23.93;;;;;;;;;;5092744;28;20055;-84
2022/12/02 11:21:12;;;;;;;68.43;25.40;;;;;;;;;;5077392;28;20080;-83
2022/12/02 11:24:30;;;;;;;61.73;26.07;;;2.50;99.90;;;;;;5076617;28;20080;-84
2022/12/02 11:27:15;;;;;;;66.13;27.30;;;;;;;;;;5092159;28;20107;-84
2022/12/02 11:30:14;;;;;;;58.83;24.43;;;2.50;99.90;;;;;;5076510;28;20042;-85
2022/12/02 11:32:59;;;;;;;67.37;26.73;;;;;;;;;;5091927;28;20039;-84
2022/12/02 11:36:05;;;;;;;60.10;27.23;;;2.70;99.90;;;;;;5076881;28;20499;-84
2022/12/02 11:38:52;;;;;;;64.57;26.47;;;2.70;99.90;;;;;;5076275;28;20031;-85
2022/12/02 11:41:48;;;;;;;56.27;22.73;;;2.60;99.90;;;;;;5092268;28;20074;-84
2022/12/02 11:44:33;;;;;;;61.43;26.87;;;;;;;;;;5076758;28;20030;-83
2022/12/02 11:47:23;;;;;;;56.47;24.50;;;2.50;99.90;;;;;;5092165;28;20080;-84
2022/12/02 11:50:23;;;;;;;59.10;25.83;;;2.60;99.90;;;;;;5091670;28;20043;-84
2022/12/02 11:53:22;;;;;;;57.30;25.57;;;2.60;99.90;;;;;;5091675;28;20035;-83
2022/12/02 11:56:11;;;;;;;60.97;27.57;;;2.60;99.90;;;;;;5076275;28;20035;-84
2022/12/02 11:58:55;;;;;;;61.13;27.03;;;;;;;;;;5094118;28;20042;-84
2022/12/02 12:01:40;;;;;;;61.47;28.33;;;;;;;;;;5080382;28;20030;-83
2022/12/02 12:04:27;;;;;;;58.17;24.80;;;2.50;99.90;;;;;;5095826;28;20093;-84
2022/12/02 12:07:13;;;;;;;62.67;26.53;;;;;;;;;;5079904;28;20051;-84
2022/12/02 12:09:58;;;;;;;62.63;28.63;;;;;;;;;;5079781;28;20506;-84
2022/12/02 12:13:18;;;;;;;62.50;28.07;;;2.50;99.90;;;;;;5080390;28;20080;-84
2022/12/02 12:16:03;;;;;;;56.87;27.13;;;2.50;99.90;;;;;;5085594;28;20392;-84
2022/12/02 12:18:49;;;;;;;63.20;27.73;;;;;;;;;;5046107;28;20500;-83
2022/12/02 12:21:34;;;;;;;61.40;25.97;;;;;;;;;;5075059;28;20054;-85
2022/12/02 12:24:20;;;;;;;60.97;26.87;;;;;;;;;;5095598;28;20442;-84
2022/12/02 12:27:04;;;;;;;64.60;29.47;;;;;;;;;;5094764;28;20043;-84
2022/12/02 12:29:49;;;;;;;58.93;27.47;;;;;;;;;;5095385;28;20031;-84
2022/12/02 12:32:33;;;;;;;56.07;26.83;;;;;;;;;;5095363;28;20035;-84
2022/12/02 12:35:18;;;;;;;57.03;28.30;;;;;;;;;;5094533;28;20089;-84
2022/12/02 12:38:03;;;;;;;58.03;27.80;;;;;;;;;;5094713;28;20047;-84
2022/12/02 12:40:47;;;;;;;57.30;27.83;;;;;;;;;;5094872;28;20035;-84
2022/12/02 12:43:32;;;;;;;60.30;25.87;;;;;;;;;;5094939;28;20043;-84
2022/12/02 12:46:16;;;;;;;55.27;26.73;;;;;;;;;;5064978;28;20067;-83
2022/12/02 12:49:01;;;;;;;62.30;28.33;;;;;;;;;;5107865;28;20113;-84
2022/12/02 12:51:45;;;;;;;59.00;28.73;;;;;;;;;;5093870;28;20039;-83
2022/12/02 12:54:30;;;;;;;57.37;26.80;;;;;;;;;;5079326;28;20066;-84
2022/12/02 12:57:14;;;;;;;53.20;26.90;;;;;;;;;;5093079;28;20089;-84
2022/12/02 12:59:59;;;;;;;52.50;25.30;;;;;;;;;;5093114;28;20043;-86
2022/12/02 13:02:43;;;;;;;50.23;25.60;;;;;;;;;;5079150;28;20093;-83
2022/12/02 13:05:28;;;;;;;57.27;27.63;;;;;;;;;;5094538;28;20042;-84
2022/12/02 13:08:12;;;;;;;54.60;25.07;;;;;;;;;;5078610;28;20112;-84
2022/12/02 13:10:57;;;;;;;54.90;25.50;;;;;;;;;;5093324;28;20043;-83
2022/12/02 13:13:42;;;;;;;60.70;27.13;;;;;;;;;;5094533;28;20092;-83
2022/12/02 13:16:27;;;;;;;55.53;27.07;;;;;;;;;;5093951;28;20506;-84
2022/12/02 13:19:11;;;;;;;57.93;27.63;;;;;;;;;;5092757;28;20096;-84
2022/12/02 13:21:56;;;;;;;53.73;27.47;;;;;;;;;;5078755;28;20039;-84
2022/12/02 13:24:40;;;;;;;51.60;26.77;;;;;;;;;;5078928;28;20043;-84
2022/12/02 13:27:25;;;;;;;60.20;27.97;;;;;;;;;;5078504;28;20035;-83
2022/12/02 13:30:14;;;;;;;59.40;27.20;;;2.10;99.90;;;;;;5078322;28;20039;-84
2022/12/02 13:32:58;;;;;;;55.20;26.00;;;;;;;;;;5094144;28;20548;-83
2022/12/02 13:35:43;;;;;;;59.10;28.63;;;;;;;;;;5078527;28;20507;-84
2022/12/02 13:38:27;;;;;;;54.57;26.93;;;;;;;;;;5092538;28;20407;-84
2022/12/02 13:41:12;;;;;;;58.17;28.43;;;;;;;;;;5093428;28;20059;-84
2022/12/02 13:43:56;;;;;;;58.00;29.43;;;;;;;;;;5078322;28;20097;-83
2022/12/02 13:46:41;;;;;;;58.50;28.63;;;;;;;;;;5078500;28;20548;-83
2022/12/02 13:49:26;;;;;;;61.83;28.30;;;;;;;;;;5077869;28;20031;-84
2022/12/02 13:52:10;;;;;;;58.07;27.17;;;;;;;;;;5093266;28;20035;-84
2022/12/02 13:54:54;;;;;;;64.57;28.67;;;;;;;;;;5092442;28;20047;-83
2022/12/02 13:57:39;;;;;;;59.50;27.00;;;;;;;;;;5093776;28;20122;-84
2022/12/02 14:00:24;;;;;;;57.50;26.53;;;;;;;;;;5093133;28;20115;-83
2022/12/02 14:03:08;;;;;;;61.13;27.57;;;;;;;;;;5091823;28;20392;-84
2022/12/02 14:05:52;;;;;;;60.63;28.57;;;;;;;;;;5078113;28;20085;-83
2022/12/02 14:08:37;;;;;;;58.80;28.27;;;;;;;;;;5078038;28;20047;-84
2022/12/02 14:11:21;;;;;;;58.90;28.80;;;;;;;;;;5091629;28;20047;-84
2022/12/02 14:14:06;;;;;;;58.57;27.77;;;;;;;;;;5078003;28;20491;-84
2022/12/02 14:16:50;;;;;;;61.20;28.43;;;;;;;;;;5092842;28;20113;-84
2022/12/02 14:19:35;;;;;;;58.10;28.27;;;;;;;;;;5078004;28;20496;-83
2022/12/02 14:22:20;;;;;;;49.37;24.67;;;;;;;;;;5076973;28;20112;-84
2022/12/02 14:25:04;;;;;;;53.27;27.57;;;;;;;;;;5093047;28;20042;-84
2022/12/02 14:27:49;;;;;;;57.77;24.80;;;;;;;;;;5091927;28;20139;-83
2022/12/02 14:30:34;;;;;;;63.60;28.63;;;;;;;;;;5105963;28;20042;-84
2022/12/02 14:33:19;;;;;;;57.70;27.90;;;;;;;;;;5092576;28;20113;-84
2022/12/02 14:36:03;;;;;;;56.93;28.03;;;;;;;;;;5107479;28;20400;-83
2022/12/02 14:38:48;;;;;;;48.07;25.37;;;;;;;;;;5094311;28;20043;-84
2022/12/02 14:41:33;;;;;;;56.63;26.03;;;;;;;;;;5063109;28;20075;-83
2022/12/02 14:44:17;;;;;;;50.70;25.60;;;;;;;;;;5062755;28;20516;-84
2022/12/02 14:47:01;;;;;;;58.37;27.00;;;;;;;;;;5106162;28;20490;-84
2022/12/02 14:49:46;;;;;;;52.37;26.97;;;;;;;;;;5106184;28;20051;-84
2022/12/02 14:52:30;;;;;;;55.33;25.60;;;;;;;;;;5077055;28;20403;-84
2022/12/02 14:55:15;;;;;;;57.10;28.20;;;;;;;;;;5092324;28;20039;-85
2022/12/02 14:57:59;;;;;;;57.73;27.03;;;;;;;;;;5091456;28;20043;-84
2022/12/02 15:00:44;;;;;;;56.87;28.07;;;;;;;;;;5092881;28;20035;-84
2022/12/02 15:03:28;;;;;;;53.37;25.67;;;;;;;;;;5076824;28;20051;-84
2022/12/02 15:06:13;;;;;;;52.77;25.27;;;;;;;;;;5092414;28;20400;-84
2022/12/02 15:08:57;;;;;;;55.87;25.50;;;;;;;;;;5091585;28;20493;-84
2022/12/02 15:11:42;;;;;;;52.20;25.13;;;;;;;;;;5091307;28;20086;-83
2022/12/02 15:14:26;;;;;;;56.60;28.10;;;;;;;;;;5076779;28;20043;-84
2022/12/02 15:17:11;;;;;;;58.10;26.97;;;;;;;;;;5076539;28;20156;-84
2022/12/02 15:19:56;;;;;;;59.03;27.70;;;;;;;;;;5077059;28;20071;-83
2022/12/02 15:22:41;;;;;;;58.13;26.23;;;;;;;;;;5090910;28;20039;-84
2022/12/02 15:25:25;;;;;;;59.90;28.93;;;;;;;;;;5105175;28;20093;-84
2022/12/02 15:28:09;;;;;;;64.07;29.23;;;;;;;;;;5077111;28;20452;-84
2022/12/02 15:30:54;;;;;;;56.10;27.70;;;;;;;;;;5092339;28;20047;-84
2022/12/02 15:33:38;;;;;;;57.40;27.63;;;;;;;;;;5095593;28;20127;-84
2022/12/02 15:36:23;;;;;;;58.67;26.67;;;;;;;;;;5095922;28;20035;-84
2022/12/02 15:39:08;;;;;;;59.30;26.13;;;;;;;;;;5094999;28;20392;-84
2022/12/02 15:41:52;;;;;;;64.73;27.70;;;;;;;;;;5080996;28;20062;-84